sensor_id;sensor_type;location;lat;lon;timestamp;pressure;altitude;pressure_sealevel;temperature;humidity
21547;BME280;41275;51.912;4.388;2023-10-31T00:02:09;99673.81;;;17.37;56.57
21547;BME280;41275;51.912;4.388;2023-10-31T00:07:30;99672.97;;;17.51;56.57
21547;BME280;41275;51.912;4.388;2023-10-31T00:12:52;99671.78;;;17.57;56.65
21547;BME280;41275;51.912;4.388;2023-10-31T00:18:13;99669.66;;;17.67;56.34
21547;BME280;41275;51.912;4.388;2023-10-31T00:23:42;99670.28;;;17.64;56.45
21547;BME280;41275;51.912;4.388;2023-10-31T00:29:03;99671.88;;;17.65;56.52
21547;BME280;41275;51.912;4.388;2023-10-31T00:34:24;99676.44;;;17.65;56.62
21547;BME280;41275;51.912;4.388;2023-10-31T00:39:46;99676.53;;;17.60;56.66
21547;BME280;41275;51.912;4.388;2023-10-31T00:45:08;99690.22;;;17.58;56.15
21547;BME280;41275;51.912;4.388;2023-10-31T00:50:29;99693.19;;;17.57;56.29
21547;BME280;41275;51.912;4.388;2023-10-31T00:55:51;99694.88;;;17.53;56.91
21547;BME280;41275;51.912;4.388;2023-10-31T01:01:12;99704.69;;;17.57;56.41
21547;BME280;41275;51.912;4.388;2023-10-31T01:06:33;99715.38;;;17.57;56.50
21547;BME280;41275;51.912;4.388;2023-10-31T01:11:54;99718.97;;;17.53;56.62
21547;BME280;41275;51.912;4.388;2023-10-31T01:17:16;99728.16;;;17.47;56.62
21547;BME280;41275;51.912;4.388;2023-10-31T01:22:37;99731.22;;;17.40;56.68
21547;BME280;41275;51.912;4.388;2023-10-31T01:27:58;99739.47;;;17.30;56.61
21547;BME280;41275;51.912;4.388;2023-10-31T01:33:19;99746.81;;;17.38;57.12
21547;BME280;41275;51.912;4.388;2023-10-31T01:38:41;99748.97;;;17.36;56.62
21547;BME280;41275;51.912;4.388;2023-10-31T01:44:02;99766.09;;;17.35;56.25
21547;BME280;41275;51.912;4.388;2023-10-31T01:49:24;99776.28;;;17.33;56.88
21547;BME280;41275;51.912;4.388;2023-10-31T01:54:45;99770.56;;;17.26;56.47
21547;BME280;41275;51.912;4.388;2023-10-31T02:00:07;99779.28;;;17.17;56.48
21547;BME280;41275;51.912;4.388;2023-10-31T02:05:28;99784.00;;;17.07;57.14
21547;BME280;41275;51.912;4.388;2023-10-31T02:10:49;99788.47;;;17.11;56.96
21547;BME280;41275;51.912;4.388;2023-10-31T02:16:11;99781.75;;;17.14;56.44
21547;BME280;41275;51.912;4.388;2023-10-31T02:21:32;99791.44;;;17.10;57.17
21547;BME280;41275;51.912;4.388;2023-10-31T02:26:53;99802.41;;;17.08;56.85
21547;BME280;41275;51.912;4.388;2023-10-31T02:32:15;99796.66;;;17.01;56.58
21547;BME280;41275;51.912;4.388;2023-10-31T02:37:36;99796.41;;;16.84;56.95
21547;BME280;41275;51.912;4.388;2023-10-31T02:42:57;99806.69;;;16.77;57.12
21547;BME280;41275;51.912;4.388;2023-10-31T02:48:18;99808.56;;;16.76;57.21
21547;BME280;41275;51.912;4.388;2023-10-31T02:53:41;99809.88;;;16.79;57.01
21547;BME280;41275;51.912;4.388;2023-10-31T02:59:02;99818.94;;;16.78;57.56
21547;BME280;41275;51.912;4.388;2023-10-31T03:04:23;99812.88;;;16.72;57.44
21547;BME280;41275;51.912;4.388;2023-10-31T03:09:44;99810.66;;;16.79;57.30
21547;BME280;41275;51.912;4.388;2023-10-31T03:15:06;99820.97;;;16.86;57.26
21547;BME280;41275;51.912;4.388;2023-10-31T03:20:28;99829.38;;;16.79;57.14
21547;BME280;41275;51.912;4.388;2023-10-31T03:25:49;99836.38;;;16.75;57.06
21547;BME280;41275;51.912;4.388;2023-10-31T03:31:11;99836.41;;;16.70;57.04
21547;BME280;41275;51.912;4.388;2023-10-31T03:36:32;99836.13;;;16.72;56.93
21547;BME280;41275;51.912;4.388;2023-10-31T03:41:53;99823.81;;;16.76;57.04
21547;BME280;41275;51.912;4.388;2023-10-31T03:47:15;99822.94;;;16.80;56.93
21547;BME280;41275;51.912;4.388;2023-10-31T03:52:36;99825.22;;;16.87;56.79
21547;BME280;41275;51.912;4.388;2023-10-31T03:57:57;99829.13;;;16.95;56.71
21547;BME280;41275;51.912;4.388;2023-10-31T04:03:18;99840.19;;;16.88;56.44
21547;BME280;41275;51.912;4.388;2023-10-31T04:08:40;99855.78;;;16.81;56.25
21547;BME280;41275;51.912;4.388;2023-10-31T04:14:01;99864.59;;;16.81;56.39
21547;BME280;41275;51.912;4.388;2023-10-31T04:19:22;99873.81;;;16.89;56.03
21547;BME280;41275;51.912;4.388;2023-10-31T04:24:43;99871.66;;;16.91;55.85
21547;BME280;41275;51.912;4.388;2023-10-31T04:30:05;99871.88;;;16.95;55.93
21547;BME280;41275;51.912;4.388;2023-10-31T04:35:27;99874.75;;;16.98;56.05
21547;BME280;41275;51.912;4.388;2023-10-31T04:40:48;99883.16;;;16.91;55.72
21547;BME280;41275;51.912;4.388;2023-10-31T04:46:09;99893.47;;;16.98;55.91
21547;BME280;41275;51.912;4.388;2023-10-31T04:51:35;99893.28;;;17.08;55.96
21547;BME280;41275;51.912;4.388;2023-10-31T04:56:56;99911.78;;;17.24;55.95
21547;BME280;41275;51.912;4.388;2023-10-31T05:02:17;99918.22;;;17.23;55.46
21547;BME280;41275;51.912;4.388;2023-10-31T05:07:38;99930.56;;;17.18;55.41
21547;BME280;41275;51.912;4.388;2023-10-31T05:13:03;99928.63;;;17.05;55.85
21547;BME280;41275;51.912;4.388;2023-10-31T05:18:24;99937.66;;;17.09;55.74
21547;BME280;41275;51.912;4.388;2023-10-31T05:23:46;99952.66;;;17.24;55.95
21547;BME280;41275;51.912;4.388;2023-10-31T05:29:07;99951.09;;;17.23;55.50
21547;BME280;41275;51.912;4.388;2023-10-31T05:34:28;99954.72;;;17.13;55.67
21547;BME280;41275;51.912;4.388;2023-10-31T05:39:50;99951.22;;;17.13;55.68
21547;BME280;41275;51.912;4.388;2023-10-31T05:45:11;99961.78;;;17.04;55.99
21547;BME280;41275;51.912;4.388;2023-10-31T05:50:32;99957.75;;;17.07;55.98
21547;BME280;41275;51.912;4.388;2023-10-31T05:55:53;99962.53;;;17.10;56.11
21547;BME280;41275;51.912;4.388;2023-10-31T06:01:15;99969.59;;;17.01;55.93
21547;BME280;41275;51.912;4.388;2023-10-31T06:06:39;99965.06;;;16.82;55.66
21547;BME280;41275;51.912;4.388;2023-10-31T06:12:00;99968.63;;;16.73;56.03
21547;BME280;41275;51.912;4.388;2023-10-31T06:17:21;99973.97;;;16.73;56.39
21547;BME280;41275;51.912;4.388;2023-10-31T06:22:43;99982.94;;;16.82;56.53
21547;BME280;41275;51.912;4.388;2023-10-31T06:28:04;99980.44;;;16.90;56.49
21547;BME280;41275;51.912;4.388;2023-10-31T06:33:25;99988.81;;;16.84;56.66
21547;BME280;41275;51.912;4.388;2023-10-31T06:38:46;99996.13;;;16.78;56.79
21547;BME280;41275;51.912;4.388;2023-10-31T06:44:08;100002.75;;;16.81;56.67
21547;BME280;41275;51.912;4.388;2023-10-31T06:49:29;100009.69;;;17.01;56.31
21547;BME280;41275;51.912;4.388;2023-10-31T06:54:50;100021.03;;;17.11;56.41
21547;BME280;41275;51.912;4.388;2023-10-31T07:00:12;100025.03;;;17.14;56.38
21547;BME280;41275;51.912;4.388;2023-10-31T07:05:33;100037.06;;;17.11;56.42
21547;BME280;41275;51.912;4.388;2023-10-31T07:10:54;100047.03;;;17.25;56.71
21547;BME280;41275;51.912;4.388;2023-10-31T07:16:16;100057.88;;;17.52;56.40
21547;BME280;41275;51.912;4.388;2023-10-31T07:21:37;100064.78;;;17.72;56.11
21547;BME280;41275;51.912;4.388;2023-10-31T07:26:58;100079.25;;;17.71;56.28
21547;BME280;41275;51.912;4.388;2023-10-31T07:32:19;100077.34;;;17.77;56.42
21547;BME280;41275;51.912;4.388;2023-10-31T07:37:40;100067.03;;;17.84;56.22
21547;BME280;41275;51.912;4.388;2023-10-31T07:43:02;100076.88;;;17.70;55.95
21547;BME280;41275;51.912;4.388;2023-10-31T07:48:23;100068.66;;;17.47;56.15
21547;BME280;41275;51.912;4.388;2023-10-31T07:53:44;100077.13;;;17.35;56.60
21547;BME280;41275;51.912;4.388;2023-10-31T07:59:06;100080.09;;;17.34;56.57
21547;BME280;41275;51.912;4.388;2023-10-31T08:04:29;100087.03;;;17.35;56.58
21547;BME280;41275;51.912;4.388;2023-10-31T08:09:51;100087.59;;;17.51;56.94
21547;BME280;41275;51.912;4.388;2023-10-31T08:15:12;100091.53;;;17.91;56.21
21547;BME280;41275;51.912;4.388;2023-10-31T08:20:34;100092.25;;;18.29;56.16
21547;BME280;41275;51.912;4.388;2023-10-31T08:25:56;100106.03;;;18.36;56.04
21547;BME280;41275;51.912;4.388;2023-10-31T08:31:17;100112.81;;;18.48;56.12
21547;BME280;41275;51.912;4.388;2023-10-31T08:36:38;100119.53;;;18.31;56.21
21547;BME280;41275;51.912;4.388;2023-10-31T08:42:00;100098.59;;;18.20;56.52
21547;BME280;41275;51.912;4.388;2023-10-31T08:47:21;100117.03;;;18.35;56.54
21547;BME280;41275;51.912;4.388;2023-10-31T08:52:42;100113.50;;;18.53;55.84
21547;BME280;41275;51.912;4.388;2023-10-31T08:58:03;100128.19;;;18.70;55.40
21547;BME280;41275;51.912;4.388;2023-10-31T09:03:24;100129.22;;;18.87;55.18
21547;BME280;41275;51.912;4.388;2023-10-31T09:08:46;100139.16;;;19.15;54.78
21547;BME280;41275;51.912;4.388;2023-10-31T09:14:07;100147.81;;;19.48;54.23
21547;BME280;41275;51.912;4.388;2023-10-31T09:19:28;100148.09;;;19.60;54.23
21547;BME280;41275;51.912;4.388;2023-10-31T09:24:49;100148.19;;;19.69;53.91
21547;BME280;41275;51.912;4.388;2023-10-31T09:30:11;100154.66;;;19.68;53.45
21547;BME280;41275;51.912;4.388;2023-10-31T09:35:32;100167.09;;;19.64;53.55
21547;BME280;41275;51.912;4.388;2023-10-31T09:40:53;100155.75;;;19.53;53.45
21547;BME280;41275;51.912;4.388;2023-10-31T09:46:16;100160.13;;;19.49;53.09
21547;BME280;41275;51.912;4.388;2023-10-31T09:51:38;100169.31;;;19.61;53.18
21547;BME280;41275;51.912;4.388;2023-10-31T09:56:59;100174.56;;;19.67;53.03
21547;BME280;41275;51.912;4.388;2023-10-31T10:02:20;100173.47;;;19.90;53.00
21547;BME280;41275;51.912;4.388;2023-10-31T10:07:42;100172.81;;;20.29;53.04
21547;BME280;41275;51.912;4.388;2023-10-31T10:13:04;100192.94;;;20.41;52.85
21547;BME280;41275;51.912;4.388;2023-10-31T10:18:33;100203.69;;;20.63;53.05
21547;BME280;41275;51.912;4.388;2023-10-31T10:23:55;100210.56;;;20.78;52.48
21547;BME280;41275;51.912;4.388;2023-10-31T10:29:17;100213.75;;;20.49;52.15
21547;BME280;41275;51.912;4.388;2023-10-31T10:34:41;100225.81;;;20.60;51.99
21547;BME280;41275;51.912;4.388;2023-10-31T10:40:06;100230.34;;;20.51;52.15
21547;BME280;41275;51.912;4.388;2023-10-31T10:45:27;100237.84;;;20.40;51.52
21547;BME280;41275;51.912;4.388;2023-10-31T10:51:06;100242.47;;;20.26;51.87
21547;BME280;41275;51.912;4.388;2023-10-31T10:56:38;100242.13;;;20.41;51.79
21547;BME280;41275;51.912;4.388;2023-10-31T11:02:01;100234.72;;;20.47;51.61
21547;BME280;41275;51.912;4.388;2023-10-31T11:07:24;100242.41;;;20.84;51.66
21547;BME280;41275;51.912;4.388;2023-10-31T11:12:46;100241.41;;;21.12;51.41
21547;BME280;41275;51.912;4.388;2023-10-31T11:18:08;100238.38;;;21.04;51.05
21547;BME280;41275;51.912;4.388;2023-10-31T11:23:30;100240.16;;;20.78;51.04
21547;BME280;41275;51.912;4.388;2023-10-31T11:28:51;100249.53;;;20.58;50.98
21547;BME280;41275;51.912;4.388;2023-10-31T11:34:13;100257.41;;;20.32;51.16
21547;BME280;41275;51.912;4.388;2023-10-31T11:39:36;100251.19;;;20.31;50.99
21547;BME280;41275;51.912;4.388;2023-10-31T11:44:57;100256.53;;;20.45;51.10
21547;BME280;41275;51.912;4.388;2023-10-31T11:50:18;100263.47;;;20.46;50.77
21547;BME280;41275;51.912;4.388;2023-10-31T11:55:41;100260.50;;;20.48;50.61
21547;BME280;41275;51.912;4.388;2023-10-31T12:01:08;100252.19;;;20.80;50.78
21547;BME280;41275;51.912;4.388;2023-10-31T12:06:29;100261.78;;;21.04;50.08
21547;BME280;41275;51.912;4.388;2023-10-31T12:11:51;100256.25;;;20.69;49.46
21547;BME280;41275;51.912;4.388;2023-10-31T12:17:12;100262.50;;;20.42;49.75
21547;BME280;41275;51.912;4.388;2023-10-31T12:22:36;100264.94;;;20.30;49.72
21547;BME280;41275;51.912;4.388;2023-10-31T12:27:57;100272.56;;;20.14;49.77
21547;BME280;41275;51.912;4.388;2023-10-31T12:33:19;100272.34;;;19.88;50.10
21547;BME280;41275;51.912;4.388;2023-10-31T12:38:40;100270.34;;;19.80;49.77
21547;BME280;41275;51.912;4.388;2023-10-31T12:44:02;100266.28;;;19.82;50.43
21547;BME280;41275;51.912;4.388;2023-10-31T12:49:25;100277.47;;;19.62;50.65
21547;BME280;41275;51.912;4.388;2023-10-31T12:54:47;100274.53;;;19.45;51.06
21547;BME280;41275;51.912;4.388;2023-10-31T13:00:09;100277.72;;;19.19;51.26
21547;BME280;41275;51.912;4.388;2023-10-31T13:05:33;100280.88;;;19.07;51.36
21547;BME280;41275;51.912;4.388;2023-10-31T13:10:56;100288.03;;;18.98;51.83
21547;BME280;41275;51.912;4.388;2023-10-31T13:16:17;100286.94;;;18.99;51.92
21547;BME280;41275;51.912;4.388;2023-10-31T13:21:39;100293.97;;;18.95;51.89
21547;BME280;41275;51.912;4.388;2023-10-31T13:27:00;100293.47;;;18.93;52.09
21547;BME280;41275;51.912;4.388;2023-10-31T13:32:23;100289.88;;;18.84;52.40
21547;BME280;41275;51.912;4.388;2023-10-31T13:37:45;100289.56;;;18.85;52.13
21547;BME280;41275;51.912;4.388;2023-10-31T13:43:22;100299.09;;;18.78;52.29
21547;BME280;41275;51.912;4.388;2023-10-31T13:48:43;100295.13;;;18.75;52.46
21547;BME280;41275;51.912;4.388;2023-10-31T13:54:04;100308.31;;;18.72;52.50
21547;BME280;41275;51.912;4.388;2023-10-31T13:59:26;100321.16;;;18.70;52.56
21547;BME280;41275;51.912;4.388;2023-10-31T14:04:47;100321.13;;;18.56;52.31
21547;BME280;41275;51.912;4.388;2023-10-31T14:10:09;100324.75;;;18.27;52.71
21547;BME280;41275;51.912;4.388;2023-10-31T14:15:30;100327.94;;;18.10;52.95
21547;BME280;41275;51.912;4.388;2023-10-31T14:20:51;100323.16;;;18.26;52.88
21547;BME280;41275;51.912;4.388;2023-10-31T14:26:13;100328.94;;;18.52;52.99
21547;BME280;41275;51.912;4.388;2023-10-31T14:31:41;100323.84;;;18.70;53.18
21547;BME280;41275;51.912;4.388;2023-10-31T14:37:02;100337.16;;;18.94;53.00
21547;BME280;41275;51.912;4.388;2023-10-31T14:42:23;100337.31;;;19.02;52.81
21547;BME280;41275;51.912;4.388;2023-10-31T14:47:45;100344.59;;;18.83;52.99
21547;BME280;41275;51.912;4.388;2023-10-31T14:53:06;100337.03;;;18.66;52.97
21547;BME280;41275;51.912;4.388;2023-10-31T14:58:27;100336.34;;;18.60;52.77
21547;BME280;41275;51.912;4.388;2023-10-31T15:03:49;100338.22;;;18.60;52.75
21547;BME280;41275;51.912;4.388;2023-10-31T15:09:10;100333.72;;;18.55;52.97
21547;BME280;41275;51.912;4.388;2023-10-31T15:14:32;100338.94;;;18.47;52.87
21547;BME280;41275;51.912;4.388;2023-10-31T15:19:53;100335.31;;;18.37;53.16
21547;BME280;41275;51.912;4.388;2023-10-31T15:25:14;100339.38;;;18.35;53.19
21547;BME280;41275;51.912;4.388;2023-10-31T15:30:36;100339.97;;;18.32;53.24
21547;BME280;41275;51.912;4.388;2023-10-31T15:35:57;100338.66;;;18.29;53.28
21547;BME280;41275;51.912;4.388;2023-10-31T15:41:19;100341.63;;;18.28;53.21
21547;BME280;41275;51.912;4.388;2023-10-31T15:46:42;100348.06;;;18.27;53.27
21547;BME280;41275;51.912;4.388;2023-10-31T15:52:04;100345.03;;;18.33;53.41
21547;BME280;41275;51.912;4.388;2023-10-31T15:57:25;100347.34;;;18.40;53.13
21547;BME280;41275;51.912;4.388;2023-10-31T16:02:46;100339.75;;;18.47;53.10
21547;BME280;41275;51.912;4.388;2023-10-31T16:08:07;100334.97;;;18.44;53.11
21547;BME280;41275;51.912;4.388;2023-10-31T16:13:29;100339.88;;;18.37;53.21
21547;BME280;41275;51.912;4.388;2023-10-31T16:18:51;100345.75;;;18.39;52.92
21547;BME280;41275;51.912;4.388;2023-10-31T16:24:12;100355.31;;;18.45;53.13
21547;BME280;41275;51.912;4.388;2023-10-31T16:29:34;100367.47;;;18.56;53.32
21547;BME280;41275;51.912;4.388;2023-10-31T16:34:55;100365.16;;;18.69;53.33
21547;BME280;41275;51.912;4.388;2023-10-31T16:40:16;100372.91;;;18.70;53.36
21547;BME280;41275;51.912;4.388;2023-10-31T16:45:37;100374.53;;;18.71;53.10
21547;BME280;41275;51.912;4.388;2023-10-31T16:50:58;100361.66;;;18.68;53.14
21547;BME280;41275;51.912;4.388;2023-10-31T16:56:20;100363.56;;;18.68;53.15
21547;BME280;41275;51.912;4.388;2023-10-31T17:01:42;100367.63;;;18.65;53.41
21547;BME280;41275;51.912;4.388;2023-10-31T17:07:04;100363.84;;;18.66;53.37
21547;BME280;41275;51.912;4.388;2023-10-31T17:12:25;100375.28;;;18.53;53.61
21547;BME280;41275;51.912;4.388;2023-10-31T17:17:46;100373.75;;;18.47;53.82
21547;BME280;41275;51.912;4.388;2023-10-31T17:23:08;100386.97;;;18.43;53.78
21547;BME280;41275;51.912;4.388;2023-10-31T17:28:29;100387.09;;;18.52;53.86
21547;BME280;41275;51.912;4.388;2023-10-31T17:33:52;100384.47;;;18.65;54.03
21547;BME280;41275;51.912;4.388;2023-10-31T17:39:13;100386.06;;;18.67;53.76
21547;BME280;41275;51.912;4.388;2023-10-31T17:44:35;100386.06;;;18.67;54.13
21547;BME280;41275;51.912;4.388;2023-10-31T17:49:57;100373.75;;;18.65;53.96
21547;BME280;41275;51.912;4.388;2023-10-31T17:55:18;100370.00;;;18.67;53.87
21547;BME280;41275;51.912;4.388;2023-10-31T18:00:40;100382.78;;;18.75;53.94
21547;BME280;41275;51.912;4.388;2023-10-31T18:06:01;100370.09;;;18.80;53.87
21547;BME280;41275;51.912;4.388;2023-10-31T18:11:22;100377.03;;;18.81;53.84
21547;BME280;41275;51.912;4.388;2023-10-31T18:16:44;100375.75;;;18.79;54.10
21547;BME280;41275;51.912;4.388;2023-10-31T18:22:05;100373.06;;;18.79;53.81
21547;BME280;41275;51.912;4.388;2023-10-31T18:27:26;100381.03;;;18.84;54.07
21547;BME280;41275;51.912;4.388;2023-10-31T18:32:48;100358.66;;;18.75;53.74
21547;BME280;41275;51.912;4.388;2023-10-31T18:38:09;100366.50;;;18.66;54.25
21547;BME280;41275;51.912;4.388;2023-10-31T18:43:31;100356.19;;;18.59;53.97
21547;BME280;41275;51.912;4.388;2023-10-31T18:48:52;100346.03;;;18.56;54.19
21547;BME280;41275;51.912;4.388;2023-10-31T18:54:14;100359.34;;;18.61;54.26
21547;BME280;41275;51.912;4.388;2023-10-31T18:59:35;100361.81;;;18.58;54.14
21547;BME280;41275;51.912;4.388;2023-10-31T19:04:56;100391.69;;;18.51;54.18
21547;BME280;41275;51.912;4.388;2023-10-31T19:10:18;100355.13;;;17.99;54.07
21547;BME280;41275;51.912;4.388;2023-10-31T19:15:39;100361.56;;;17.45;55.20
21547;BME280;41275;51.912;4.388;2023-10-31T19:21:03;100355.03;;;17.56;55.66
21547;BME280;41275;51.912;4.388;2023-10-31T19:26:25;100359.22;;;17.67;55.96
21547;BME280;41275;51.912;4.388;2023-10-31T19:31:46;100344.66;;;17.78;56.08
21547;BME280;41275;51.912;4.388;2023-10-31T19:37:08;100342.94;;;17.87;56.34
21547;BME280;41275;51.912;4.388;2023-10-31T19:42:29;100335.25;;;18.05;56.25
21547;BME280;41275;51.912;4.388;2023-10-31T19:47:50;100330.81;;;18.14;56.27
21547;BME280;41275;51.912;4.388;2023-10-31T19:53:12;100349.28;;;18.15;56.34
21547;BME280;41275;51.912;4.388;2023-10-31T19:58:35;100351.91;;;18.21;56.73
21547;BME280;41275;51.912;4.388;2023-10-31T20:03:57;100351.38;;;18.19;56.84
21547;BME280;41275;51.912;4.388;2023-10-31T20:09:18;100351.16;;;18.15;56.78
21547;BME280;41275;51.912;4.388;2023-10-31T20:14:39;100356.16;;;18.22;57.06
21547;BME280;41275;51.912;4.388;2023-10-31T20:20:01;100349.44;;;18.24;57.06
21547;BME280;41275;51.912;4.388;2023-10-31T20:25:22;100348.56;;;18.29;57.32
21547;BME280;41275;51.912;4.388;2023-10-31T20:30:44;100355.16;;;18.36;57.14
21547;BME280;41275;51.912;4.388;2023-10-31T20:36:06;100345.75;;;18.39;56.97
21547;BME280;41275;51.912;4.388;2023-10-31T20:41:27;100340.75;;;18.51;56.88
21547;BME280;41275;51.912;4.388;2023-10-31T20:46:48;100343.34;;;18.56;57.02
21547;BME280;41275;51.912;4.388;2023-10-31T20:52:12;100341.84;;;18.50;56.99
21547;BME280;41275;51.912;4.388;2023-10-31T20:57:33;100346.69;;;18.48;57.00
21547;BME280;41275;51.912;4.388;2023-10-31T21:02:54;100331.06;;;18.36;56.81
21547;BME280;41275;51.912;4.388;2023-10-31T21:08:18;100332.72;;;18.32;56.80
21547;BME280;41275;51.912;4.388;2023-10-31T21:13:43;100331.16;;;18.31;56.92
21547;BME280;41275;51.912;4.388;2023-10-31T21:19:05;100329.03;;;18.28;56.57
21547;BME280;41275;51.912;4.388;2023-10-31T21:24:27;100328.38;;;18.18;56.46
21547;BME280;41275;51.912;4.388;2023-10-31T21:29:48;100341.31;;;18.10;56.74
21547;BME280;41275;51.912;4.388;2023-10-31T21:35:10;100342.09;;;18.11;56.86
21547;BME280;41275;51.912;4.388;2023-10-31T21:40:36;100331.19;;;18.07;56.91
21547;BME280;41275;51.912;4.388;2023-10-31T21:45:57;100344.63;;;18.02;57.00
21547;BME280;41275;51.912;4.388;2023-10-31T21:51:19;100341.25;;;17.97;56.81
21547;BME280;41275;51.912;4.388;2023-10-31T21:56:40;100332.03;;;18.03;56.94
21547;BME280;41275;51.912;4.388;2023-10-31T22:02:01;100326.13;;;18.06;56.43
21547;BME280;41275;51.912;4.388;2023-10-31T22:07:22;100343.31;;;18.00;56.86
21547;BME280;41275;51.912;4.388;2023-10-31T22:12:44;100344.41;;;17.99;56.79
21547;BME280;41275;51.912;4.388;2023-10-31T22:18:05;100360.22;;;18.00;56.52
21547;BME280;41275;51.912;4.388;2023-10-31T22:23:26;100357.47;;;18.05;56.49
21547;BME280;41275;51.912;4.388;2023-10-31T22:28:48;100342.09;;;18.11;56.51
21547;BME280;41275;51.912;4.388;2023-10-31T22:34:09;100344.66;;;18.21;55.98
21547;BME280;41275;51.912;4.388;2023-10-31T22:39:31;100344.31;;;18.28;56.21
21547;BME280;41275;51.912;4.388;2023-10-31T22:44:53;100337.69;;;18.39;56.17
21547;BME280;41275;51.912;4.388;2023-10-31T22:50:14;100346.41;;;18.50;55.94
21547;BME280;41275;51.912;4.388;2023-10-31T22:55:36;100346.03;;;18.56;56.00
21547;BME280;41275;51.912;4.388;2023-10-31T23:00:57;100342.19;;;18.62;56.12
21547;BME280;41275;51.912;4.388;2023-10-31T23:06:19;100335.97;;;18.67;55.79
21547;BME280;41275;51.912;4.388;2023-10-31T23:11:40;100342.41;;;18.66;55.50
21547;BME280;41275;51.912;4.388;2023-10-31T23:17:02;100334.44;;;18.61;55.12
21547;BME280;41275;51.912;4.388;2023-10-31T23:22:23;100329.09;;;18.61;55.41
21547;BME280;41275;51.912;4.388;2023-10-31T23:27:44;100317.94;;;18.54;55.22
21547;BME280;41275;51.912;4.388;2023-10-31T23:33:07;100315.25;;;18.54;55.14
21547;BME280;41275;51.912;4.388;2023-10-31T23:38:29;100304.03;;;18.52;55.46
21547;BME280;41275;51.912;4.388;2023-10-31T23:43:50;100297.59;;;18.53;55.47
21547;BME280;41275;51.912;4.388;2023-10-31T23:49:11;100293.25;;;18.57;55.34
21547;BME280;41275;51.912;4.388;2023-10-31T23:54:32;100290.97;;;18.64;55.58
21547;BME280;41275;51.912;4.388;2023-10-31T23:59:54;100291.19;;;18.68;55.66
